Time;durP1;ratioP1;P1;durP2;ratioP2;P2;SDS_P1;SDS_P2;PMS_P1;PMS_P2;Temp;Humidity;BMP_temperature;BMP_pressure;BME280_temperature;BME280_humidity;BME280_pressure;Samples;Min_cycle;Max_cycle;Signal;HPM_P1;HPM_P2
2021/08/22 00:01:55;;;;;;;0.63;0.50;;;15.30;53.20;;;;;;5031664;28;20238;-50
2021/08/22 00:04:25;;;;;;;0.50;0.45;;;15.30;53.20;;;;;;5031064;28;20235;-63
2021/08/22 00:06:56;;;;;;;0.80;0.80;;;15.30;53.10;;;;;;5031159;28;20251;-62
2021/08/22 00:09:26;;;;;;;3.63;2.58;;;15.30;53.20;;;;;;5030375;28;20232;-63
2021/08/22 00:11:57;;;;;;;4.22;2.50;;;15.30;53.20;;;;;;5031103;28;20220;-63
2021/08/22 00:14:29;;;;;;;5.05;3.13;;;15.40;53.20;;;;;;5031280;28;20203;-62
2021/08/22 00:16:59;;;;;;;5.55;4.18;;;15.40;53.30;;;;;;5031349;28;20259;-63
2021/08/22 00:19:30;;;;;;;6.75;4.40;;;15.40;53.20;;;;;;5031481;28;20220;-62
2021/08/22 00:22:00;;;;;;;13.25;7.60;;;15.40;53.30;;;;;;5030046;28;20248;-60
2021/08/22 00:24:31;;;;;;;18.35;8.80;;;15.40;53.20;;;;;;5030721;28;20196;-58
2021/08/22 00:27:01;;;;;;;12.13;7.05;;;15.50;53.70;;;;;;5031212;28;20244;-60
2021/08/22 00:29:33;;;;;;;11.32;5.65;;;15.50;54.00;;;;;;5030946;28;20228;-63
2021/08/22 00:32:04;;;;;;;9.65;5.20;;;15.60;54.10;;;;;;5030267;28;20232;-64
2021/08/22 00:34:35;;;;;;;9.55;5.60;;;15.60;54.10;;;;;;5030687;28;20266;-65
2021/08/22 00:37:05;;;;;;;9.80;5.05;;;15.70;54.20;;;;;;5030999;28;20263;-63
2021/08/22 00:39:36;;;;;;;14.10;5.55;;;15.70;54.20;;;;;;5030283;28;20287;-65
2021/08/22 00:42:07;;;;;;;8.40;4.78;;;15.70;54.20;;;;;;5030730;28;20200;-61
2021/08/22 00:44:39;;;;;;;6.97;4.80;;;15.80;54.10;;;;;;5029895;28;20231;-57
2021/08/22 00:47:09;;;;;;;7.90;4.55;;;15.80;54.20;;;;;;5030223;28;20251;-62
2021/08/22 00:49:40;;;;;;;8.30;4.68;;;15.80;54.10;;;;;;5031008;28;20230;-64
2021/08/22 00:52:11;;;;;;;5.65;4.43;;;15.80;54.00;;;;;;5030728;28;20699;-64
2021/08/22 00:54:43;;;;;;;10.18;4.93;;;15.80;54.00;;;;;;5030746;28;20235;-65
2021/08/22 00:57:13;;;;;;;10.70;4.75;;;15.90;54.00;;;;;;5031788;28;20699;-64
2021/08/22 00:59:46;;;;;;;9.70;5.05;;;15.90;54.00;;;;;;5031296;28;20254;-65
2021/08/22 01:02:17;;;;;;;8.32;4.68;;;15.90;54.00;;;;;;5031169;28;20338;-63
2021/08/22 01:04:51;;;;;;;10.40;4.90;;;15.90;53.90;;;;;;5030606;28;20287;-65
2021/08/22 01:07:22;;;;;;;8.50;4.63;;;15.90;53.80;;;;;;5030555;28;20723;-62
2021/08/22 01:09:53;;;;;;;8.57;4.93;;;15.90;53.80;;;;;;5030946;28;20238;-64
2021/08/22 01:12:26;;;;;;;7.53;4.15;;;16.00;53.80;;;;;;5032107;28;20219;-65
2021/08/22 01:14:59;;;;;;;6.35;3.78;;;16.00;53.80;;;;;;5035011;28;20239;-64
2021/08/22 01:17:30;;;;;;;8.60;4.40;;;16.00;53.80;;;;;;5035162;28;20263;-64
2021/08/22 01:20:07;;;;;;;7.15;4.63;;;16.00;53.80;;;;;;5035387;28;20275;-64
2021/08/22 01:22:38;;;;;;;6.78;3.88;;;16.00;53.80;;;;;;5035035;28;20262;-59
2021/08/22 01:25:10;;;;;;;6.13;3.75;;;16.10;53.90;;;;;;5035229;28;20227;-65
2021/08/22 01:27:40;;;;;;;8.63;4.32;;;16.10;53.90;;;;;;5034377;28;20480;-63
2021/08/22 01:30:14;;;;;;;7.00;3.97;;;16.10;53.80;;;;;;5034338;28;20228;-61
2021/08/22 01:32:46;;;;;;;6.47;4.40;;;16.10;53.80;;;;;;5034505;28;20239;-59
2021/08/22 01:35:18;;;;;;;6.10;3.75;;;16.10;53.80;;;;;;5034803;28;20235;-62
2021/08/22 01:37:49;;;;;;;6.10;3.78;;;16.10;53.80;;;;;;5034770;28;20216;-64
2021/08/22 01:40:21;;;;;;;8.13;3.75;;;16.10;53.80;;;;;;5034935;28;20236;-64
2021/08/22 01:42:51;;;;;;;5.57;3.35;;;16.10;53.80;;;;;;5034699;28;20239;-60
2021/08/22 01:45:22;;;;;;;7.10;3.70;;;16.10;54.00;;;;;;5034558;28;20247;-64
2021/08/22 01:47:54;;;;;;;7.10;3.70;;;16.10;53.80;;;;;;5034378;28;20219;-63
2021/08/22 01:50:25;;;;;;;5.97;3.47;;;16.20;53.80;;;;;;5034433;28;20227;-63
2021/08/22 01:52:57;;;;;;;6.00;3.50;;;16.20;53.80;;;;;;5034279;28;20730;-62
2021/08/22 01:55:27;;;;;;;3.88;2.25;;;16.20;53.90;;;;;;5034450;28;20228;-47
2021/08/22 01:57:58;;;;;;;1.23;0.88;;;16.20;53.60;;;;;;5034591;28;20259;-46
2021/08/22 02:00:28;;;;;;;2.03;1.10;;;16.20;52.60;;;;;;5034943;28;20283;-51
2021/08/22 02:03:04;;;;;;;4.13;1.70;;;16.30;52.30;;;;;;5034013;28;20228;-47
2021/08/22 02:05:35;;;;;;;4.53;1.55;;;16.30;52.20;;;;;;5034305;28;20470;-66
2021/08/22 02:08:07;;;;;;;4.15;1.92;;;16.40;52.10;;;;;;5033975;28;20255;-69
2021/08/22 02:10:37;;;;;;;2.40;1.65;;;16.40;51.90;;;;;;5033447;28;20299;-68
2021/08/22 02:13:07;;;;;;;3.17;1.60;;;16.40;52.00;;;;;;5032580;28;20234;-61
2021/08/22 02:15:41;;;;;;;3.45;1.40;;;16.40;52.00;;;;;;5033525;28;20231;-53
2021/08/22 02:18:16;;;;;;;3.67;1.60;;;16.50;52.20;;;;;;5031109;28;20620;-48
2021/08/22 02:20:46;;;;;;;3.63;2.00;;;16.40;52.20;;;;;;5032829;28;20226;-61
2021/08/22 02:23:17;;;;;;;2.55;1.63;;;16.50;52.40;;;;;;5032136;28;20194;-57
2021/08/22 02:25:47;;;;;;;3.13;1.95;;;16.50;52.50;;;;;;5033383;28;20639;-66
2021/08/22 02:28:18;;;;;;;5.68;1.60;;;16.50;52.50;;;;;;5033029;28;20643;-56
2021/08/22 02:30:48;;;;;;;2.05;1.35;;;16.50;52.40;;;;;;5033701;28;20287;-64
2021/08/22 02:33:21;;;;;;;3.42;1.85;;;16.50;52.40;;;;;;5032844;28;20239;-50
2021/08/22 02:35:52;;;;;;;2.60;1.52;;;16.50;52.50;;;;;;5032741;28;20289;-68
2021/08/22 02:38:22;;;;;;;2.90;1.55;;;16.60;52.50;;;;;;5032887;28;20212;-63
2021/08/22 02:40:52;;;;;;;2.78;1.63;;;16.60;52.50;;;;;;5031954;28;20283;-65
2021/08/22 02:43:23;;;;;;;3.53;1.38;;;16.60;52.50;;;;;;5032859;28;20227;-65
2021/08/22 02:45:54;;;;;;;1.92;1.02;;;16.60;52.50;;;;;;5031787;28;20460;-64
2021/08/22 02:48:26;;;;;;;2.05;1.30;;;16.60;52.50;;;;;;5032001;28;20302;-55
2021/08/22 02:50:57;;;;;;;1.77;1.40;;;16.60;52.40;;;;;;5032273;28;20239;-61
2021/08/22 02:53:27;;;;;;;1.60;1.33;;;16.60;52.50;;;;;;5032411;28;20238;-52
2021/08/22 02:55:57;;;;;;;1.63;1.25;;;16.60;52.40;;;;;;5032737;28;20255;-68
2021/08/22 02:58:29;;;;;;;2.78;1.50;;;16.60;52.50;;;;;;5031209;28;20261;-68
2021/08/22 03:01:00;;;;;;;2.67;1.20;;;16.60;52.40;;;;;;5031917;28;20239;-67
2021/08/22 03:03:32;;;;;;;2.33;1.00;;;16.60;52.50;;;;;;5032140;28;20228;-65
2021/08/22 03:06:03;;;;;;;2.53;1.20;;;16.60;52.50;;;;;;5032833;28;20232;-53
2021/08/22 03:08:33;;;;;;;2.00;1.48;;;16.60;52.50;;;;;;5032038;28;20244;-66
2021/08/22 03:11:03;;;;;;;2.97;1.05;;;16.60;52.40;;;;;;5032368;28;20240;-62
2021/08/22 03:13:34;;;;;;;2.70;1.10;;;16.60;52.40;;;;;;5031961;28;20520;-69
2021/08/22 03:16:04;;;;;;;2.13;1.23;;;16.60;52.50;;;;;;5031770;28;20302;-68
2021/08/22 03:18:37;;;;;;;2.05;1.10;;;16.60;52.50;;;;;;5031602;28;20691;-63
2021/08/22 03:21:07;;;;;;;1.30;1.17;;;16.60;52.50;;;;;;5032489;28;20239;-68
2021/08/22 03:23:37;;;;;;;1.80;1.23;;;16.60;52.60;;;;;;5032122;28;20231;-69
2021/08/22 03:26:08;;;;;;;2.13;1.40;;;16.60;52.60;;;;;;5031690;28;20619;-69
2021/08/22 03:28:38;;;;;;;1.77;1.20;;;16.60;52.60;;;;;;5032153;28;20251;-56
2021/08/22 03:31:09;;;;;;;2.25;1.23;;;16.60;52.70;;;;;;5031297;28;20632;-68
2021/08/22 03:33:41;;;;;;;2.10;1.13;;;16.60;52.70;;;;;;5032179;28;20683;-55
2021/08/22 03:36:12;;;;;;;1.20;1.00;;;16.60;52.70;;;;;;5031416;28;20251;-55
2021/08/22 03:38:44;;;;;;;1.70;1.20;;;16.60;52.70;;;;;;5032366;28;20220;-62
2021/08/22 03:41:15;;;;;;;1.83;1.02;;;16.60;52.70;;;;;;5031745;28;20619;-68
2021/08/22 03:43:45;;;;;;;1.23;0.98;;;16.60;52.80;;;;;;5031813;28;20287;-69
2021/08/22 03:46:16;;;;;;;2.53;1.30;;;16.60;52.70;;;;;;5031024;28;20291;-67
2021/08/22 03:48:48;;;;;;;1.33;0.90;;;16.60;52.80;;;;;;5031608;28;20303;-58
2021/08/22 03:51:19;;;;;;;1.33;1.02;;;16.60;52.70;;;;;;5030839;28;20263;-68
2021/08/22 03:53:49;;;;;;;1.17;1.08;;;16.60;52.70;;;;;;5030786;28;20192;-68
2021/08/22 03:56:19;;;;;;;1.23;0.90;;;16.60;52.70;;;;;;5031131;28;20339;-68
2021/08/22 03:58:50;;;;;;;3.40;1.15;;;16.60;52.80;;;;;;5030579;28;20650;-45
2021/08/22 04:01:20;;;;;;;1.17;0.90;;;16.60;52.80;;;;;;5032028;28;20697;-63
2021/08/22 04:03:53;;;;;;;1.10;1.00;;;16.70;52.90;;;;;;5030858;28;20284;-68
2021/08/22 04:06:24;;;;;;;1.92;1.20;;;16.60;52.90;;;;;;5030926;28;20224;-56
2021/08/22 04:08:55;;;;;;;1.55;1.08;;;16.70;53.00;;;;;;5030629;28;20227;-67
2021/08/22 04:11:25;;;;;;;1.65;1.10;;;16.60;52.90;;;;;;5030559;28;20228;-68
2021/08/22 04:13:56;;;;;;;2.03;0.93;;;16.70;52.90;;;;;;5031533;28;20230;-68
2021/08/22 04:16:26;;;;;;;1.52;1.00;;;16.60;52.80;;;;;;5029994;28;20262;-68
2021/08/22 04:18:58;;;;;;;2.20;0.90;;;16.60;52.90;;;;;;5031001;28;20242;-68
2021/08/22 04:21:29;;;;;;;1.40;0.90;;;16.60;52.90;;;;;;5030745;28;20236;-68
2021/08/22 04:23:59;;;;;;;0.90;0.90;;;16.60;52.80;;;;;;5030135;28;20644;-68
2021/08/22 04:26:30;;;;;;;1.70;0.90;;;16.70;52.90;;;;;;5031130;28;20683;-68
2021/08/22 04:29:00;;;;;;;1.00;0.90;;;16.60;52.90;;;;;;5031140;28;20200;-68
2021/08/22 04:31:31;;;;;;;1.23;0.80;;;16.70;52.90;;;;;;5030679;28;20687;-68
2021/08/22 04:34:10;;;;;;;1.00;0.82;;;16.60;52.80;;;;;;5030397;28;20283;-55
2021/08/22 04:36:40;;;;;;;1.73;0.90;;;16.60;52.90;;;;;;5030009;28;20260;-56
2021/08/22 04:39:11;;;;;;;1.00;0.90;;;16.70;53.10;;;;;;5030365;28;20243;-56
2021/08/22 04:41:41;;;;;;;1.48;1.00;;;16.70;53.10;;;;;;5031236;28;20234;-56
2021/08/22 04:44:12;;;;;;;1.30;1.00;;;16.70;53.20;;;;;;5030296;28;20232;-59
2021/08/22 04:46:42;;;;;;;1.83;1.00;;;16.70;53.20;;;;;;5029980;28;20239;-52
2021/08/22 04:49:14;;;;;;;1.15;0.85;;;16.70;53.20;;;;;;5031475;28;20255;-60
2021/08/22 04:51:45;;;;;;;1.45;1.00;;;16.70;53.40;;;;;;5030754;28;20246;-61
2021/08/22 04:54:15;;;;;;;1.10;0.77;;;16.70;53.20;;;;;;5030079;28;20279;-54
2021/08/22 04:56:46;;;;;;;1.83;0.85;;;16.70;53.20;;;;;;5030431;28;20320;-64
2021/08/22 04:59:16;;;;;;;1.63;0.93;;;16.70;53.20;;;;;;5030272;28;20241;-61
2021/08/22 05:01:46;;;;;;;1.08;0.98;;;16.70;53.10;;;;;;5030009;28;20727;-57
2021/08/22 05:04:19;;;;;;;0.95;0.85;;;16.70;53.10;;;;;;5031295;28;20881;-65
2021/08/22 05:06:49;;;;;;;0.88;0.70;;;16.70;53.10;;;;;;5030210;28;20235;-59
2021/08/22 05:09:19;;;;;;;2.20;0.85;;;16.70;53.10;;;;;;5030189;28;20231;-67
2021/08/22 05:11:50;;;;;;;1.00;0.90;;;16.70;53.10;;;;;;5030554;28;20313;-68
2021/08/22 05:14:22;;;;;;;0.93;0.80;;;16.70;53.10;;;;;;5030007;28;20683;-68
2021/08/22 05:16:52;;;;;;;1.55;0.82;;;16.70;53.00;;;;;;5029830;28;20259;-65
2021/08/22 05:19:24;;;;;;;1.27;0.90;;;16.70;53.10;;;;;;5030937;28;20231;-65
2021/08/22 05:21:55;;;;;;;1.75;0.80;;;16.70;53.10;;;;;;5029738;28;20244;-68
2021/08/22 05:24:26;;;;;;;1.20;0.90;;;16.70;53.10;;;;;;5030112;28;20231;-68
2021/08/22 05:26:56;;;;;;;2.65;0.90;;;16.70;53.10;;;;;;5030181;28;20239;-67
2021/08/22 05:29:27;;;;;;;1.80;0.95;;;16.70;53.20;;;;;;5030061;28;20231;-66
2021/08/22 05:31:57;;;;;;;0.88;0.80;;;16.70;53.20;;;;;;5030852;28;20283;-68
2021/08/22 05:34:30;;;;;;;0.70;0.70;;;16.70;53.20;;;;;;5029953;28;20207;-69
2021/08/22 05:37:00;;;;;;;1.90;0.80;;;16.70;53.20;;;;;;5030391;28;20282;-69
2021/08/22 05:39:31;;;;;;;1.60;0.90;;;16.70;53.20;;;;;;5029514;28;20283;-68
2021/08/22 05:42:01;;;;;;;1.52;1.13;;;16.70;53.20;;;;;;5030570;28;20241;-69
2021/08/22 05:44:31;;;;;;;1.02;0.90;;;16.70;53.20;;;;;;5030296;28;20239;-68
2021/08/22 05:47:02;;;;;;;2.42;0.90;;;16.70;53.20;;;;;;5031133;28;20243;-68
2021/08/22 05:49:34;;;;;;;1.45;0.88;;;16.70;53.20;;;;;;5028996;28;20625;-68
2021/08/22 05:52:05;;;;;;;1.88;1.10;;;16.70;53.20;;;;;;5029250;28;20239;-68
2021/08/22 05:54:35;;;;;;;1.48;0.90;;;16.70;53.10;;;;;;5021501;28;20708;-65
2021/08/22 05:57:06;;;;;;;2.45;1.00;;;16.70;53.10;;;;;;5030141;28;20263;-68
2021/08/22 05:59:36;;;;;;;1.13;1.02;;;16.70;53.20;;;;;;5032644;28;20228;-64
2021/08/22 06:02:07;;;;;;;1.65;1.00;;;16.70;53.20;;;;;;5032336;28;20611;-69
2021/08/22 06:04:39;;;;;;;2.47;1.13;;;16.70;53.20;;;;;;5033623;28;20259;-68
2021/08/22 06:07:09;;;;;;;1.20;0.85;;;16.70;53.20;;;;;;5033006;28;20264;-68
2021/08/22 06:09:40;;;;;;;1.65;0.95;;;16.70;53.20;;;;;;5033074;28;20279;-67
2021/08/22 06:12:11;;;;;;;7.63;1.50;;;16.70;53.30;;;;;;5032986;28;20228;-70
2021/08/22 06:14:41;;;;;;;2.72;1.10;;;16.70;53.40;;;;;;5033912;28;20703;-68
2021/08/22 06:17:12;;;;;;;3.20;0.90;;;16.70;53.50;;;;;;5032838;28;20715;-70
2021/08/22 06:19:44;;;;;;;2.63;1.00;;;16.70;53.40;;;;;;5033535;28;20664;-70
2021/08/22 06:22:14;;;;;;;4.05;1.33;;;16.70;53.40;;;;;;5033117;28;20632;-63
2021/08/22 06:24:45;;;;;;;2.25;1.13;;;16.70;53.40;;;;;;5032774;28;20266;-68
2021/08/22 06:27:16;;;;;;;2.75;1.20;;;16.70;53.40;;;;;;5032597;28;20662;-68
2021/08/22 06:29:47;;;;;;;1.30;1.05;;;16.70;53.80;;;;;;5033774;28;20200;-70
2021/08/22 06:32:17;;;;;;;1.85;0.98;;;16.70;53.90;;;;;;5033331;28;20239;-69
2021/08/22 06:34:49;;;;;;;4.53;1.20;;;16.70;53.90;;;;;;5034294;28;20200;-67
2021/08/22 06:37:20;;;;;;;2.58;1.05;;;16.70;53.90;;;;;;5032727;28;20266;-62
2021/08/22 06:39:50;;;;;;;2.63;1.27;;;16.80;53.90;;;;;;5032923;28;20223;-68
2021/08/22 06:42:21;;;;;;;1.80;1.10;;;16.70;53.90;;;;;;5033422;28;20228;-68
2021/08/22 06:44:51;;;;;;;1.52;1.00;;;16.80;53.90;;;;;;5033242;28;20228;-63
2021/08/22 06:47:21;;;;;;;3.10;1.30;;;16.70;53.90;;;;;;5033087;28;20260;-68
2021/08/22 06:49:54;;;;;;;1.80;1.13;;;16.70;53.80;;;;;;5033461;28;20231;-68
2021/08/22 06:52:24;;;;;;;1.88;0.98;;;16.70;53.80;;;;;;5033339;28;20754;-69
2021/08/22 06:54:55;;;;;;;2.83;1.00;;;16.70;53.80;;;;;;5033370;28;20250;-69
2021/08/22 06:57:25;;;;;;;2.47;1.20;;;16.80;53.80;;;;;;5033129;28;20262;-68
2021/08/22 06:59:55;;;;;;;1.27;0.95;;;16.70;53.80;;;;;;5033281;28;20239;-66
2021/08/22 07:02:26;;;;;;;1.20;0.93;;;16.80;53.80;;;;;;5033127;28;20262;-66
2021/08/22 07:04:58;;;;;;;1.65;1.05;;;16.70;53.70;;;;;;5033144;28;20287;-69
2021/08/22 07:07:29;;;;;;;1.73;0.93;;;16.70;53.70;;;;;;5033029;28;20256;-63
2021/08/22 07:09:59;;;;;;;1.08;0.95;;;16.70;53.70;;;;;;5031773;28;20279;-66
2021/08/22 07:12:29;;;;;;;1.40;1.30;;;16.70;53.70;;;;;;5033182;28;20283;-67
2021/08/22 07:15:00;;;;;;;2.47;1.23;;;16.70;53.70;;;;;;5032886;28;20223;-68
2021/08/22 07:17:30;;;;;;;1.60;1.40;;;16.70;53.70;;;;;;5032483;28;20263;-66
2021/08/22 07:20:03;;;;;;;1.35;1.00;;;16.70;53.70;;;;;;5033153;28;20744;-67
2021/08/22 07:22:33;;;;;;;1.15;1.05;;;16.70;53.80;;;;;;5032914;28;20228;-66
2021/08/22 07:25:04;;;;;;;1.08;0.80;;;16.70;53.80;;;;;;5031295;28;20267;-68
2021/08/22 07:27:35;;;;;;;1.42;1.00;;;16.70;53.90;;;;;;5032819;28;20636;-64
2021/08/22 07:30:06;;;;;;;2.38;1.00;;;16.70;53.90;;;;;;5032795;28;20604;-68
2021/08/22 07:32:36;;;;;;;3.03;1.13;;;16.70;54.00;;;;;;5032221;28;20247;-68
2021/08/22 07:35:09;;;;;;;3.30;0.90;;;16.70;54.00;;;;;;5032913;28;20232;-64
2021/08/22 07:37:39;;;;;;;1.40;1.08;;;16.70;54.10;;;;;;5031493;28;20333;-68
2021/08/22 07:40:11;;;;;;;1.90;1.27;;;16.70;54.10;;;;;;5031490;28;20232;-69
2021/08/22 07:42:41;;;;;;;1.13;0.90;;;16.70;54.40;;;;;;5032163;28;20232;-70
2021/08/22 07:45:12;;;;;;;1.98;1.00;;;16.70;54.50;;;;;;5031640;28;20235;-70
2021/08/22 07:47:44;;;;;;;1.48;1.00;;;16.80;54.50;;;;;;5031862;28;20251;-69
2021/08/22 07:50:16;;;;;;;1.45;1.10;;;16.70;54.50;;;;;;5032500;28;20687;-69
2021/08/22 07:52:46;;;;;;;1.40;1.15;;;16.70;54.40;;;;;;5032623;28;20188;-67
2021/08/22 07:55:17;;;;;;;2.35;1.08;;;16.80;54.40;;;;;;5032294;28;20239;-70
2021/08/22 07:57:47;;;;;;;1.25;1.15;;;16.70;54.50;;;;;;5032034;28;20255;-69
2021/08/22 08:00:18;;;;;;;1.38;1.00;;;16.80;54.50;;;;;;5031839;28;20231;-69
2021/08/22 08:02:48;;;;;;;2.15;0.93;;;16.70;54.40;;;;;;5032258;28;20243;-69
2021/08/22 08:05:21;;;;;;;1.23;0.90;;;16.70;54.50;;;;;;5031968;28;20230;-69
2021/08/22 08:07:51;;;;;;;0.85;0.80;;;16.70;54.40;;;;;;5032073;28;20255;-64
2021/08/22 08:10:22;;;;;;;2.28;1.00;;;16.70;54.40;;;;;;5031395;28;20231;-66
2021/08/22 08:12:52;;;;;;;2.08;0.95;;;16.70;54.30;;;;;;5031459;28;20275;-66
2021/08/22 08:15:22;;;;;;;1.27;1.08;;;16.70;54.30;;;;;;5031325;28;20232;-69
2021/08/22 08:17:53;;;;;;;2.90;1.08;;;16.70;54.30;;;;;;5031106;28;20271;-65
2021/08/22 08:20:25;;;;;;;1.40;0.98;;;16.70;54.30;;;;;;5028562;28;20223;-68
2021/08/22 08:22:56;;;;;;;1.00;0.93;;;16.70;54.30;;;;;;5031437;28;20224;-67
2021/08/22 08:25:26;;;;;;;1.45;0.95;;;16.70;54.30;;;;;;5031631;28;20196;-68
2021/08/22 08:27:57;;;;;;;1.30;1.05;;;16.70;54.20;;;;;;5031420;28;20653;-69
2021/08/22 08:30:27;;;;;;;2.00;0.73;;;16.70;54.20;;;;;;5031617;28;20239;-69
2021/08/22 08:32:57;;;;;;;3.38;0.85;;;16.70;54.30;;;;;;5031424;28;20262;-68
2021/08/22 08:35:30;;;;;;;0.70;0.70;;;16.70;54.40;;;;;;5031543;28;20232;-69
2021/08/22 08:38:01;;;;;;;1.38;0.82;;;16.70;54.30;;;;;;5031190;28;20264;-59
2021/08/22 08:40:31;;;;;;;2.15;1.10;;;16.70;54.40;;;;;;5031077;28;20235;-69
2021/08/22 08:43:01;;;;;;;1.70;0.90;;;16.70;54.40;;;;;;5031388;28;20357;-69
2021/08/22 08:45:55;;;;;;;1.10;0.80;;;16.70;54.50;;;;;;5031332;28;20236;-65
2021/08/22 08:48:26;;;;;;;1.42;0.80;;;16.70;54.50;;;;;;5026583;28;20251;-66
2021/08/22 08:51:03;;;;;;;1.83;1.00;;;16.70;54.50;;;;;;5030831;28;20675;-66
2021/08/22 08:53:35;;;;;;;1.55;0.90;;;16.70;54.40;;;;;;5031151;28;20227;-68
2021/08/22 08:56:06;;;;;;;0.75;0.70;;;16.70;54.50;;;;;;5031054;28;20279;-69
2021/08/22 08:58:36;;;;;;;2.15;0.93;;;16.70;54.30;;;;;;5030884;28;20278;-69
2021/08/22 09:01:07;;;;;;;1.45;0.80;;;16.70;54.40;;;;;;5031176;28;20219;-65
2021/08/22 09:03:38;;;;;;;0.93;0.80;;;16.70;54.40;;;;;;5031149;28;20235;-66
2021/08/22 09:06:46;;;;;;;1.73;1.08;;;16.70;54.40;;;;;;5031276;28;20251;-69
2021/08/22 09:10:06;;;;;;;0.98;0.70;;;16.70;54.40;;;;;;5030954;28;20229;-70
2021/08/22 09:13:14;;;;;;;0.88;0.80;;;16.70;54.30;;;;;;5030931;28;20245;-68
2021/08/22 09:16:20;;;;;;;0.77;0.77;;;16.70;54.30;;;;;;5031187;28;20283;-69
2021/08/22 09:19:12;;;;;;;1.00;0.82;;;16.70;54.40;;;;;;5009796;28;20223;-68
2021/08/22 09:22:14;;;;;;;0.90;0.70;;;16.70;54.50;;;;;;5002464;28;20720;-69
2021/08/22 09:25:28;;;;;;;1.33;1.00;;;16.70;54.60;;;;;;5030579;28;20290;-68
2021/08/22 09:28:51;;;;;;;0.80;0.80;;;16.70;54.60;;;;;;5030541;28;20684;-69
2021/08/22 09:31:56;;;;;;;1.17;0.90;;;16.70;54.50;;;;;;5030660;28;20231;-69
2021/08/22 09:35:04;;;;;;;0.98;0.88;;;16.70;54.50;;;;;;5033758;28;20231;-67
2021/08/22 09:38:21;;;;;;;1.02;0.80;;;16.70;54.50;;;;;;5033049;28;20264;-69
2021/08/22 09:41:26;;;;;;;1.38;0.80;;;16.70;54.50;;;;;;5033596;28;20612;-65
2021/08/22 09:44:49;;;;;;;0.82;0.77;;;16.70;54.50;;;;;;5034459;28;20259;-66
2021/08/22 09:47:54;;;;;;;0.60;0.60;;;16.70;54.50;;;;;;5034036;28;20651;-70
2021/08/22 09:51:12;;;;;;;1.33;0.80;;;16.60;54.40;;;;;;5015312;28;20228;-68
2021/08/22 09:54:17;;;;;;;1.25;0.70;;;16.60;54.50;;;;;;5034276;28;20236;-70
2021/08/22 09:57:19;;;;;;;1.63;0.80;;;16.60;54.60;;;;;;5034699;28;20231;-67
2021/08/22 10:00:37;;;;;;;5.60;1.70;;;16.60;55.30;;;;;;5034029;28;20259;-57
2021/08/22 10:03:39;;;;;;;3.75;2.00;;;16.60;56.10;;;;;;5032048;28;20628;-71
2021/08/22 10:06:30;;;;;;;4.68;1.50;;;16.70;56.50;;;;;;5033664;28;20200;-70
2021/08/22 10:09:02;;;;;;;3.30;1.60;;;16.70;56.40;;;;;;5033599;28;20227;-59
2021/08/22 10:11:33;;;;;;;3.72;1.27;;;16.70;56.30;;;;;;5033402;28;20239;-61
2021/08/22 10:14:04;;;;;;;4.78;1.58;;;16.70;56.20;;;;;;5033665;28;20262;-59
2021/08/22 10:16:34;;;;;;;4.57;1.30;;;16.70;56.20;;;;;;5034432;28;20243;-69
2021/08/22 10:19:08;;;;;;;6.15;1.70;;;16.70;56.20;;;;;;5032496;28;20343;-70
2021/08/22 10:21:40;;;;;;;4.82;2.03;;;16.70;56.10;;;;;;5033781;28;20672;-66
2021/08/22 10:24:25;;;;;;;4.95;2.00;;;16.70;56.10;;;;;;5033166;28;20227;-59
2021/08/22 10:26:57;;;;;;;4.60;1.70;;;16.80;56.00;;;;;;5033688;28;20251;-57
2021/08/22 10:29:29;;;;;;;3.30;1.90;;;16.80;55.90;;;;;;5032666;28;20565;-53
2021/08/22 10:32:15;;;;;;;3.97;1.95;;;16.80;55.90;;;;;;5032196;28;20235;-66
2021/08/22 10:34:47;;;;;;;4.68;1.90;;;16.80;55.90;;;;;;5032883;28;20200;-68
2021/08/22 10:37:35;;;;;;;5.47;2.20;;;16.70;55.80;;;;;;5033110;28;20216;-67
2021/08/22 10:40:36;;;;;;;6.72;2.00;;;16.80;56.00;;;;;;5032584;28;20310;-66
2021/08/22 10:43:40;;;;;;;6.93;2.20;;;16.80;56.00;;;;;;5032343;28;20232;-70
2021/08/22 10:46:16;;;;;;;5.72;1.98;;;16.70;55.80;;;;;;5031077;28;20231;-56
2021/08/22 10:48:53;;;;;;;5.95;2.17;;;16.80;55.70;;;;;;5032711;28;20215;-69
2021/08/22 10:51:27;;;;;;;4.90;1.92;;;16.70;55.70;;;;;;5031551;28;20238;-61
2021/08/22 10:54:24;;;;;;;4.82;1.90;;;16.80;55.70;;;;;;5032585;28;20691;-49
2021/08/22 10:56:54;;;;;;;3.05;1.63;;;16.80;55.60;;;;;;5032369;28;20299;-58
2021/08/22 10:59:24;;;;;;;6.90;2.00;;;16.80;55.60;;;;;;5033187;28;20661;-51
2021/08/22 11:01:55;;;;;;;8.00;2.00;;;16.80;55.60;;;;;;5032442;28;20608;-59
2021/08/22 11:04:26;;;;;;;4.43;1.80;;;16.80;55.50;;;;;;5032755;28;20242;-67
2021/08/22 11:06:58;;;;;;;3.65;1.75;;;16.80;55.50;;;;;;5032615;28;20212;-61
2021/08/22 11:09:41;;;;;;;4.95;2.08;;;16.80;55.50;;;;;;5031811;28;20242;-62
2021/08/22 11:12:26;;;;;;;5.63;1.95;;;16.80;55.60;;;;;;5032796;28;20227;-58
2021/08/22 11:14:56;;;;;;;5.10;2.05;;;16.80;55.60;;;;;;5029969;28;20216;-57
2021/08/22 11:17:27;;;;;;;6.97;2.38;;;16.80;55.50;;;;;;5032299;28;20259;-67
2021/08/22 11:20:08;;;;;;;7.43;2.53;;;16.80;55.60;;;;;;5031553;28;20747;-62
2021/08/22 11:22:39;;;;;;;5.60;2.05;;;16.80;55.60;;;;;;5031840;28;20549;-56
2021/08/22 11:25:12;;;;;;;4.07;2.00;;;16.80;55.50;;;;;;5031556;28;20660;-61
2021/08/22 11:27:42;;;;;;;3.63;1.70;;;16.80;55.40;;;;;;5032039;28;20302;-62
2021/08/22 11:30:13;;;;;;;4.13;2.20;;;16.80;55.40;;;;;;5031566;28;20235;-55
2021/08/22 11:32:52;;;;;;;4.55;1.70;;;16.80;55.30;;;;;;5032231;28;20254;-67
2021/08/22 11:35:24;;;;;;;5.10;1.88;;;16.80;55.30;;;;;;5032889;28;20199;-59
2021/08/22 11:37:55;;;;;;;4.75;2.08;;;16.80;55.30;;;;;;5032922;28;20713;-66
2021/08/22 11:40:27;;;;;;;3.85;1.83;;;16.80;55.20;;;;;;5032696;28;20707;-56
2021/08/22 11:42:58;;;;;;;4.63;2.35;;;16.80;55.20;;;;;;5032603;28;20660;-63
2021/08/22 11:45:28;;;;;;;5.32;1.92;;;16.80;55.20;;;;;;5032741;28;20234;-66
2021/08/22 11:47:59;;;;;;;7.30;2.10;;;16.80;55.20;;;;;;5032362;28;20272;-51
2021/08/22 11:50:30;;;;;;;5.28;2.22;;;16.80;55.10;;;;;;5032210;28;20231;-66
2021/08/22 11:53:01;;;;;;;3.50;2.17;;;16.80;55.20;;;;;;5032708;28;20636;-57
2021/08/22 11:55:34;;;;;;;5.18;2.10;;;16.80;55.20;;;;;;5032092;28;20231;-63
2021/08/22 11:58:12;;;;;;;6.82;1.92;;;16.80;55.20;;;;;;5031867;28;20259;-55
2021/08/22 12:00:42;;;;;;;3.63;2.00;;;16.80;55.20;;;;;;5031699;28;20301;-57
2021/08/22 12:03:16;;;;;;;5.13;2.20;;;16.80;55.20;;;;;;5031709;28;20262;-51
2021/08/22 12:05:56;;;;;;;4.68;2.20;;;16.80;55.10;;;;;;5031787;28;20232;-52
2021/08/22 12:08:27;;;;;;;4.65;1.90;;;16.80;55.10;;;;;;5031802;28;20212;-59
2021/08/22 12:11:10;;;;;;;5.32;2.10;;;16.80;55.10;;;;;;5031483;28;20251;-60
2021/08/22 12:13:40;;;;;;;3.90;1.83;;;16.80;55.10;;;;;;5031364;28;20231;-58
2021/08/22 12:16:26;;;;;;;4.18;2.03;;;16.80;55.10;;;;;;5031547;28;20711;-55
2021/08/22 12:18:56;;;;;;;4.57;1.77;;;16.80;55.10;;;;;;5030156;28;20681;-51
2021/08/22 12:21:26;;;;;;;5.57;2.20;;;16.80;55.00;;;;;;5031587;28;20437;-53
2021/08/22 12:23:57;;;;;;;3.50;1.60;;;16.80;55.00;;;;;;5031953;28;20227;-47
2021/08/22 12:26:30;;;;;;;4.10;2.00;;;16.80;55.10;;;;;;5031776;28;20228;-56
2021/08/22 12:29:00;;;;;;;3.53;1.63;;;16.80;55.00;;;;;;5031529;28;20238;-50
2021/08/22 12:31:34;;;;;;;6.20;2.20;;;16.80;55.00;;;;;;5032133;28;20231;-60
2021/08/22 12:34:07;;;;;;;5.00;1.90;;;16.80;55.00;;;;;;5031383;28;20239;-50
2021/08/22 12:36:38;;;;;;;4.28;2.00;;;16.80;55.00;;;;;;5031731;28;20600;-64
2021/08/22 12:39:09;;;;;;;4.90;2.13;;;16.80;55.00;;;;;;5030978;28;20318;-58
2021/08/22 12:41:47;;;;;;;4.28;1.92;;;16.80;55.00;;;;;;5030928;28;20610;-52
2021/08/22 12:44:18;;;;;;;2.78;1.80;;;16.80;55.10;;;;;;5031361;28;20192;-63
2021/08/22 12:46:50;;;;;;;5.13;1.80;;;16.80;55.00;;;;;;5031438;28;20642;-55
2021/08/22 12:49:20;;;;;;;5.20;1.70;;;16.80;55.00;;;;;;5031418;28;20246;-61
2021/08/22 12:51:54;;;;;;;3.85;1.77;;;16.80;54.90;;;;;;5031067;28;20307;-56
2021/08/22 12:54:25;;;;;;;2.63;1.52;;;16.80;54.90;;;;;;5031344;28;20654;-55
2021/08/22 12:56:57;;;;;;;4.57;1.88;;;16.80;54.90;;;;;;5031050;28;20256;-55
2021/08/22 12:59:28;;;;;;;4.35;1.77;;;16.80;54.90;;;;;;5030632;28;20271;-51
2021/08/22 13:01:58;;;;;;;4.22;2.00;;;16.80;54.80;;;;;;5031092;28;20293;-65
2021/08/22 13:04:29;;;;;;;4.18;1.70;;;16.80;54.80;;;;;;5030490;28;20628;-54
2021/08/22 13:07:00;;;;;;;3.75;1.92;;;16.80;54.80;;;;;;5031062;28;20631;-61
2021/08/22 13:09:31;;;;;;;3.78;1.85;;;16.80;54.80;;;;;;5030315;28;20291;-63
2021/08/22 13:12:03;;;;;;;3.58;1.77;;;16.80;54.80;;;;;;5031277;28;20227;-63
2021/08/22 13:14:33;;;;;;;5.95;1.98;;;16.80;54.80;;;;;;5030229;28;20243;-50
2021/08/22 13:17:04;;;;;;;4.03;1.80;;;16.80;54.80;;;;;;5029535;28;20304;-56
2021/08/22 13:19:34;;;;;;;2.50;1.85;;;16.80;54.80;;;;;;5030027;28;20286;-65
2021/08/22 13:22:05;;;;;;;2.85;1.70;;;16.80;54.80;;;;;;5030587;28;20200;-59